createdAt,value
2019-02-15T00:00:57.435Z,1027.49
2019-02-15T00:01:57.409Z,1027.46
2019-02-15T00:02:57.389Z,1027.45
2019-02-15T00:03:57.366Z,1027.45
2019-02-15T00:04:57.353Z,1027.45
2019-02-15T00:05:57.323Z,1027.45
2019-02-15T00:06:57.312Z,1027.45
2019-02-15T00:07:57.283Z,1027.45
2019-02-15T00:08:57.270Z,1027.45
2019-02-15T00:09:57.238Z,1027.46
2019-02-15T00:10:57.214Z,1027.44
2019-02-15T00:11:57.192Z,1027.42
2019-02-15T00:12:57.180Z,1027.42
2019-02-15T00:13:57.156Z,1027.43
2019-02-15T00:14:57.127Z,1027.42
2019-02-15T00:15:57.111Z,1027.41
2019-02-15T00:16:57.089Z,1027.42
2019-02-15T00:17:57.060Z,1027.39
2019-02-15T00:18:57.042Z,1027.41
2019-02-15T00:19:57.026Z,1027.47
2019-02-15T00:20:56.995Z,1027.43
2019-02-15T00:21:56.973Z,1027.42
2019-02-15T00:22:56.952Z,1027.39
2019-02-15T00:23:56.930Z,1027.39
2019-02-15T00:24:56.907Z,1027.37
2019-02-15T00:25:56.902Z,1027.37
2019-02-15T00:26:56.866Z,1027.40
2019-02-15T00:27:56.846Z,1027.37
2019-02-15T00:28:56.821Z,1027.35
2019-02-15T00:29:56.797Z,1027.36
2019-02-15T00:30:56.777Z,1027.37
2019-02-15T00:31:56.757Z,1027.39
2019-02-15T00:32:56.732Z,1027.44
2019-02-15T00:33:56.712Z,1027.43
2019-02-15T00:34:56.708Z,1027.43
2019-02-15T00:35:56.670Z,1027.41
2019-02-15T00:36:56.645Z,1027.45
2019-02-15T00:37:56.627Z,1027.39
2019-02-15T00:38:56.601Z,1027.42
2019-02-15T00:39:56.578Z,1027.44
2019-02-15T00:40:56.561Z,1027.41
2019-02-15T00:41:56.532Z,1027.44
2019-02-15T00:42:56.510Z,1027.44
2019-02-15T00:43:56.491Z,1027.43
2019-02-15T00:44:56.495Z,1027.47
2019-02-15T00:45:56.446Z,1027.43
2019-02-15T00:46:56.829Z,1027.47
2019-02-15T00:47:56.414Z,1027.45
2019-02-15T00:48:56.377Z,1027.44
2019-02-15T00:49:56.357Z,1027.44
2019-02-15T00:50:56.340Z,1027.46
2019-02-15T00:51:56.313Z,1027.45
2019-02-15T00:52:56.294Z,1027.45
2019-02-15T00:53:56.268Z,1027.39
2019-02-15T00:54:56.252Z,1027.39
2019-02-15T00:55:56.233Z,1027.39
2019-02-15T00:56:56.203Z,1027.40
2019-02-15T00:57:56.184Z,1027.39
2019-02-15T00:58:56.172Z,1027.40
2019-02-15T00:59:56.139Z,1027.35
2019-02-15T01:00:56.119Z,1027.40
2019-02-15T01:01:56.095Z,1027.43
2019-02-15T01:02:56.068Z,1027.39
2019-02-15T01:03:56.047Z,1027.41
2019-02-15T01:04:56.028Z,1027.41
2019-02-15T01:05:56.007Z,1027.39
2019-02-15T01:06:55.981Z,1027.40
2019-02-15T01:07:55.966Z,1027.41
2019-02-15T01:08:55.936Z,1027.38
2019-02-15T01:09:55.922Z,1027.38
2019-02-15T01:10:55.894Z,1027.38
2019-02-15T01:11:55.867Z,1027.40
2019-02-15T01:12:55.849Z,1027.38
2019-02-15T01:13:55.829Z,1027.42
2019-02-15T01:14:55.803Z,1027.38
2019-02-15T01:15:55.780Z,1027.38
2019-02-15T01:16:55.757Z,1027.34
2019-02-15T01:17:55.736Z,1027.34
2019-02-15T01:18:55.711Z,1027.31
2019-02-15T01:19:55.693Z,1027.32
2019-02-15T01:20:55.672Z,1027.33
2019-02-15T01:21:55.646Z,1027.30
2019-02-15T01:22:55.673Z,1027.30
2019-02-15T01:23:55.605Z,1027.29
2019-02-15T01:24:55.581Z,1027.32
2019-02-15T01:25:55.559Z,1027.28
2019-02-15T01:26:55.538Z,1027.28
2019-02-15T01:27:55.524Z,1027.26
2019-02-15T01:28:55.491Z,1027.26
2019-02-15T01:29:55.467Z,1027.27
2019-02-15T01:30:55.450Z,1027.30
2019-02-15T01:31:55.427Z,1027.23
2019-02-15T01:32:55.402Z,1027.23
2019-02-15T01:33:55.385Z,1027.27
2019-02-15T01:34:55.356Z,1027.27
2019-02-15T01:35:55.337Z,1027.27
2019-02-15T01:36:55.312Z,1027.30
2019-02-15T01:37:55.291Z,1027.29
2019-02-15T01:38:55.269Z,1027.30
2019-02-15T01:39:55.246Z,1027.29
2019-02-15T01:40:55.229Z,1027.24
2019-02-15T01:41:55.205Z,1027.22
2019-02-15T01:42:55.180Z,1027.24
2019-02-15T01:43:55.155Z,1027.19
2019-02-15T01:44:55.130Z,1027.16
2019-02-15T01:45:55.109Z,1027.15
2019-02-15T01:46:55.092Z,1027.15
2019-02-15T01:47:55.065Z,1027.16
2019-02-15T01:48:55.039Z,1027.12
2019-02-15T01:49:55.021Z,1027.14
2019-02-15T01:50:54.998Z,1027.11
2019-02-15T01:51:54.978Z,1027.07
2019-02-15T01:52:54.951Z,1027.05
2019-02-15T01:53:54.932Z,1027.03
2019-02-15T01:54:54.909Z,1027.04
2019-02-15T01:55:54.898Z,1027.07
2019-02-15T01:56:54.861Z,1027.02
2019-02-15T01:57:54.844Z,1027.02
2019-02-15T01:58:54.817Z,1026.97
2019-02-15T01:59:54.794Z,1026.96
2019-02-15T02:00:54.771Z,1026.96
2019-02-15T02:01:54.748Z,1026.99
2019-02-15T02:02:54.727Z,1026.96
2019-02-15T02:03:54.704Z,1026.95
2019-02-15T02:04:54.683Z,1026.97
2019-02-15T02:05:54.660Z,1026.94
2019-02-15T02:06:54.639Z,1026.97
2019-02-15T02:07:54.615Z,1026.96
2019-02-15T02:08:54.594Z,1026.97
2019-02-15T02:09:54.570Z,1026.93
2019-02-15T02:10:54.546Z,1026.90
2019-02-15T02:11:54.532Z,1026.93
2019-02-15T02:12:54.501Z,1026.93
2019-02-15T02:13:54.477Z,1026.93
2019-02-15T02:14:54.456Z,1026.92
2019-02-15T02:15:54.433Z,1026.90
2019-02-15T02:16:54.412Z,1026.86
2019-02-15T02:17:54.393Z,1026.85
2019-02-15T02:18:54.369Z,1026.86
2019-02-15T02:19:54.344Z,1026.81
2019-02-15T02:20:54.319Z,1026.81
2019-02-15T02:21:54.305Z,1026.77
2019-02-15T02:22:54.274Z,1026.79
2019-02-15T02:23:54.256Z,1026.76
2019-02-15T02:24:54.229Z,1026.75
2019-02-15T02:25:54.212Z,1026.77
2019-02-15T02:26:54.187Z,1026.72
2019-02-15T02:27:54.162Z,1026.69
2019-02-15T02:28:54.139Z,1026.76
2019-02-15T02:29:54.117Z,1026.68
2019-02-15T02:30:54.099Z,1026.72
2019-02-15T02:31:54.072Z,1026.71
2019-02-15T02:32:54.047Z,1026.74
2019-02-15T02:33:54.030Z,1026.71
2019-02-15T02:34:54.002Z,1026.71
2019-02-15T02:35:53.986Z,1026.71
2019-02-15T02:36:53.958Z,1026.72
2019-02-15T02:37:53.940Z,1026.71
2019-02-15T02:38:53.913Z,1026.72
2019-02-15T02:39:53.896Z,1026.70
2019-02-15T02:40:53.874Z,1026.71
2019-02-15T02:41:53.847Z,1026.73
2019-02-15T02:42:53.830Z,1026.72
2019-02-15T02:43:59.665Z,1026.71
2019-02-15T02:44:53.776Z,1026.70
2019-02-15T02:45:53.753Z,1026.72
2019-02-15T02:46:53.733Z,1026.70
2019-02-15T02:47:53.711Z,1026.68
2019-02-15T02:48:53.684Z,1026.67
2019-02-15T02:49:53.661Z,1026.68
2019-02-15T02:50:53.643Z,1026.70
2019-02-15T02:51:53.621Z,1026.64
2019-02-15T02:52:53.594Z,1026.65
2019-02-15T02:53:53.570Z,1026.63
2019-02-15T02:54:53.548Z,1026.65
2019-02-15T02:55:53.525Z,1026.63
2019-02-15T02:56:53.504Z,1026.62
2019-02-15T02:57:53.479Z,1026.58
2019-02-15T02:58:53.464Z,1026.60
2019-02-15T02:59:53.437Z,1026.56
2019-02-15T03:00:53.412Z,1026.55
2019-02-15T03:01:53.391Z,1026.58
2019-02-15T03:02:53.366Z,1026.56
2019-02-15T03:03:53.344Z,1026.53
2019-02-15T03:04:53.321Z,1026.56
2019-02-15T03:05:53.297Z,1026.57
2019-02-15T03:06:53.310Z,1026.58
2019-02-15T03:07:53.255Z,1026.57
2019-02-15T03:08:53.233Z,1026.56
2019-02-15T03:09:53.246Z,1026.57
2019-02-15T03:10:53.186Z,1026.58
2019-02-15T03:11:53.161Z,1026.58
2019-02-15T03:12:53.139Z,1026.59
2019-02-15T03:13:53.115Z,1026.53
2019-02-15T03:14:53.096Z,1026.53
2019-02-15T03:15:53.071Z,1026.54
2019-02-15T03:16:53.047Z,1026.58
2019-02-15T03:17:53.036Z,1026.55
2019-02-15T03:18:53.005Z,1026.55
2019-02-15T03:19:52.983Z,1026.49
2019-02-15T03:20:52.957Z,1026.53
2019-02-15T03:21:52.938Z,1026.51
2019-02-15T03:22:52.921Z,1026.50
2019-02-15T03:23:52.894Z,1026.44
2019-02-15T03:24:52.865Z,1026.46
2019-02-15T03:25:52.849Z,1026.42
2019-02-15T03:26:52.821Z,1026.45
2019-02-15T03:27:52.799Z,1026.46
2019-02-15T03:28:52.777Z,1026.44
2019-02-15T03:29:52.747Z,1026.43
2019-02-15T03:30:52.882Z,1026.44
2019-02-15T03:31:52.705Z,1026.48
2019-02-15T03:32:52.681Z,1026.42
2019-02-15T03:33:52.662Z,1026.40
2019-02-15T03:34:52.640Z,1026.46
2019-02-15T03:35:52.611Z,1026.48
2019-02-15T03:36:52.592Z,1026.42
2019-02-15T03:37:52.575Z,1026.44
2019-02-15T03:38:52.544Z,1026.42
2019-02-15T03:39:52.528Z,1026.43
2019-02-15T03:40:52.499Z,1026.42
2019-02-15T03:41:52.477Z,1026.41
2019-02-15T03:42:52.523Z,1026.37
2019-02-15T03:43:52.429Z,1026.34
2019-02-15T03:44:52.423Z,1026.29
2019-02-15T03:45:52.382Z,1026.33
2019-02-15T03:46:52.360Z,1026.33
2019-02-15T03:47:52.335Z,1026.33
2019-02-15T03:48:52.313Z,1026.32
2019-02-15T03:49:52.290Z,1026.33
2019-02-15T03:50:52.267Z,1026.31
2019-02-15T03:51:52.245Z,1026.30
2019-02-15T03:52:52.224Z,1026.27
2019-02-15T03:53:52.198Z,1026.26
2019-02-15T03:54:52.178Z,1026.24
2019-02-15T03:55:52.150Z,1026.26
2019-02-15T03:56:52.133Z,1026.22
2019-02-15T03:57:52.105Z,1026.19
2019-02-15T03:58:52.083Z,1026.20
2019-02-15T03:59:52.062Z,1026.25
2019-02-15T04:00:52.035Z,1026.24
2019-02-15T04:01:52.013Z,1026.22
2019-02-15T04:02:51.995Z,1026.26
2019-02-15T04:03:51.969Z,1026.27
2019-02-15T04:04:51.944Z,1026.27
2019-02-15T04:05:51.926Z,1026.27
2019-02-15T04:06:51.906Z,1026.23
2019-02-15T04:07:51.878Z,1026.20
2019-02-15T04:08:51.857Z,1026.21
2019-02-15T04:09:51.830Z,1026.21
2019-02-15T04:10:51.808Z,1026.25
2019-02-15T04:11:51.784Z,1026.23
2019-02-15T04:12:51.759Z,1026.23
2019-02-15T04:13:51.737Z,1026.28
2019-02-15T04:14:51.715Z,1026.26
2019-02-15T04:15:51.691Z,1026.27
2019-02-15T04:16:51.673Z,1026.27
2019-02-15T04:17:51.646Z,1026.27
2019-02-15T04:18:51.626Z,1026.24
2019-02-15T04:19:51.601Z,1026.23
2019-02-15T04:20:51.579Z,1026.24
2019-02-15T04:21:51.552Z,1026.24
2019-02-15T04:22:51.529Z,1026.25
2019-02-15T04:23:51.508Z,1026.27
2019-02-15T04:24:51.483Z,1026.30
2019-02-15T04:25:51.459Z,1026.30
2019-02-15T04:26:51.436Z,1026.34
2019-02-15T04:27:51.423Z,1026.34
2019-02-15T04:28:51.388Z,1026.34
2019-02-15T04:29:51.369Z,1026.32
2019-02-15T04:30:51.344Z,1026.36
2019-02-15T04:31:51.321Z,1026.33
2019-02-15T04:32:51.301Z,1026.34
2019-02-15T04:33:51.280Z,1026.36
2019-02-15T04:34:51.253Z,1026.36
2019-02-15T04:35:51.230Z,1026.30
2019-02-15T04:36:51.209Z,1026.31
2019-02-15T04:37:51.183Z,1026.31
2019-02-15T04:38:51.164Z,1026.32
2019-02-15T04:39:51.139Z,1026.29
2019-02-15T04:40:51.131Z,1026.31
2019-02-15T04:41:51.091Z,1026.34
2019-02-15T04:42:51.068Z,1026.37
2019-02-15T04:43:51.046Z,1026.38
2019-02-15T04:44:51.024Z,1026.37
2019-02-15T04:45:50.999Z,1026.37
2019-02-15T04:46:50.976Z,1026.36
2019-02-15T04:47:50.951Z,1026.37
2019-02-15T04:48:50.929Z,1026.38
2019-02-15T04:49:50.906Z,1026.38
2019-02-15T04:50:50.889Z,1026.37
2019-02-15T04:51:50.859Z,1026.40
2019-02-15T04:52:50.841Z,1026.39
2019-02-15T04:53:50.819Z,1026.41
2019-02-15T04:54:50.796Z,1026.39
2019-02-15T04:55:50.769Z,1026.38
2019-02-15T04:56:50.746Z,1026.36
2019-02-15T04:57:50.720Z,1026.35
2019-02-15T04:58:50.703Z,1026.36
2019-02-15T04:59:50.684Z,1026.33
2019-02-15T05:00:50.655Z,1026.35
2019-02-15T05:01:50.632Z,1026.34
2019-02-15T05:02:50.608Z,1026.32
2019-02-15T05:03:50.584Z,1026.33
2019-02-15T05:04:50.563Z,1026.33
2019-02-15T05:05:50.539Z,1026.30
2019-02-15T05:06:50.517Z,1026.27
2019-02-15T05:07:50.499Z,1026.30
2019-02-15T05:08:50.468Z,1026.27
2019-02-15T05:09:50.445Z,1026.28
2019-02-15T05:10:50.423Z,1026.30
2019-02-15T05:11:50.408Z,1026.31
2019-02-15T05:12:50.377Z,1026.27
2019-02-15T05:13:50.356Z,1026.33
2019-02-15T05:14:53.001Z,1026.29
2019-02-15T05:15:50.304Z,1026.30
2019-02-15T05:16:50.284Z,1026.29
2019-02-15T05:17:50.276Z,1026.29
2019-02-15T05:18:50.238Z,1026.30
2019-02-15T05:19:50.215Z,1026.28
2019-02-15T05:20:50.194Z,1026.25
2019-02-15T05:21:50.166Z,1026.26
2019-02-15T05:22:50.145Z,1026.26
2019-02-15T05:23:50.121Z,1026.27
2019-02-15T05:24:50.099Z,1026.26
2019-02-15T05:25:50.074Z,1026.23
2019-02-15T05:26:50.054Z,1026.21
2019-02-15T05:27:50.028Z,1026.26
2019-02-15T05:28:50.002Z,1026.25
2019-02-15T05:29:50.017Z,1026.24
2019-02-15T05:30:49.959Z,1026.27
2019-02-15T05:31:49.934Z,1026.29
2019-02-15T05:32:49.913Z,1026.29
2019-02-15T05:33:49.895Z,1026.32
2019-02-15T05:34:49.864Z,1026.31
2019-02-15T05:35:49.842Z,1026.26
2019-02-15T05:36:49.902Z,1026.29
2019-02-15T05:37:49.802Z,1026.30
2019-02-15T05:38:49.774Z,1026.29
2019-02-15T05:39:49.776Z,1026.30
2019-02-15T05:40:49.798Z,1026.28
2019-02-15T05:41:49.712Z,1026.28
2019-02-15T05:42:49.691Z,1026.28
2019-02-15T05:43:49.672Z,1026.30
2019-02-15T05:44:49.644Z,1026.30
2019-02-15T05:45:49.609Z,1026.28
2019-02-15T05:46:49.597Z,1026.28
2019-02-15T05:47:49.564Z,1026.26
2019-02-15T05:48:49.542Z,1026.27
2019-02-15T05:49:49.532Z,1026.24
2019-02-15T05:50:49.501Z,1026.23
2019-02-15T05:51:49.478Z,1026.22
2019-02-15T05:52:49.445Z,1026.25
2019-02-15T05:53:49.428Z,1026.24
2019-02-15T05:54:49.402Z,1026.24
2019-02-15T05:55:49.379Z,1026.25
2019-02-15T05:56:49.361Z,1026.28
2019-02-15T05:57:49.337Z,1026.29
2019-02-15T05:58:49.314Z,1026.27
2019-02-15T05:59:49.288Z,1026.23
2019-02-15T06:00:49.269Z,1026.23
2019-02-15T06:01:49.269Z,1026.27
2019-02-15T06:03:49.200Z,1026.24
2019-02-15T06:04:49.171Z,1026.25
2019-02-15T06:05:49.148Z,1026.22
2019-02-15T06:06:49.123Z,1026.23
2019-02-15T06:07:49.098Z,1026.19
2019-02-15T06:08:49.077Z,1026.21
2019-02-15T06:09:49.072Z,1026.15
2019-02-15T06:10:49.038Z,1026.17
2019-02-15T06:11:49.007Z,1026.16
2019-02-15T06:12:48.987Z,1026.16
2019-02-15T06:13:48.962Z,1026.20
2019-02-15T06:14:48.940Z,1026.17
2019-02-15T06:15:48.914Z,1026.20
2019-02-15T06:16:48.895Z,1026.17
2019-02-15T06:17:48.868Z,1026.16
2019-02-15T06:18:48.843Z,1026.18
2019-02-15T06:19:48.823Z,1026.16
2019-02-15T06:20:48.813Z,1026.21
2019-02-15T06:21:48.776Z,1026.22
2019-02-15T06:22:48.757Z,1026.20
2019-02-15T06:23:48.728Z,1026.22
2019-02-15T06:24:48.708Z,1026.24
2019-02-15T06:25:48.682Z,1026.26
2019-02-15T06:26:48.669Z,1026.24
2019-02-15T06:27:48.639Z,1026.20
2019-02-15T06:28:48.618Z,1026.24
2019-02-15T06:29:48.590Z,1026.24
2019-02-15T06:30:48.567Z,1026.26
2019-02-15T06:31:48.543Z,1026.26
2019-02-15T06:32:48.536Z,1026.24
2019-02-15T06:33:48.498Z,1026.25
2019-02-15T06:34:48.475Z,1026.26
2019-02-15T06:35:48.451Z,1026.25
2019-02-15T06:36:48.430Z,1026.29
2019-02-15T06:37:48.405Z,1026.25
2019-02-15T06:38:48.385Z,1026.26
2019-02-15T06:39:48.361Z,1026.27
2019-02-15T06:40:48.337Z,1026.29
2019-02-15T06:41:48.347Z,1026.27
2019-02-15T06:42:48.290Z,1026.31
2019-02-15T06:43:48.270Z,1026.31
2019-02-15T06:44:48.243Z,1026.33
2019-02-15T06:45:48.220Z,1026.30
2019-02-15T06:46:48.203Z,1026.30
2019-02-15T06:47:48.181Z,1026.29
2019-02-15T06:48:48.161Z,1026.24
2019-02-15T06:49:48.130Z,1026.24
2019-02-15T06:50:48.111Z,1026.23
2019-02-15T06:51:48.085Z,1026.17
2019-02-15T06:52:48.069Z,1026.15
2019-02-15T06:53:48.136Z,1026.17
2019-02-15T06:54:48.057Z,1026.20
2019-02-15T06:55:48.075Z,1026.22
2019-02-15T06:56:48.082Z,1026.27
2019-02-15T06:57:47.948Z,1026.24
2019-02-15T06:58:47.985Z,1026.24
2019-02-15T06:59:47.903Z,1026.25
2019-02-15T07:00:47.877Z,1026.25
2019-02-15T07:01:47.860Z,1026.24
2019-02-15T07:02:47.826Z,1026.26
2019-02-15T07:03:47.804Z,1026.24
2019-02-15T07:04:47.780Z,1026.27
2019-02-15T07:05:47.762Z,1026.24
2019-02-15T07:06:47.737Z,1026.26
2019-02-15T07:07:47.711Z,1026.27
2019-02-15T07:08:47.691Z,1026.26
2019-02-15T07:09:47.665Z,1026.29
2019-02-15T07:10:47.642Z,1026.33
2019-02-15T07:11:47.619Z,1026.30
2019-02-15T07:12:47.604Z,1026.30
2019-02-15T07:13:47.577Z,1026.30
2019-02-15T07:14:47.550Z,1026.35
2019-02-15T07:15:47.528Z,1026.51
2019-02-15T07:16:47.504Z,1026.57
2019-02-15T07:17:47.490Z,1026.53
2019-02-15T07:18:47.463Z,1026.48
2019-02-15T07:19:47.440Z,1026.56
2019-02-15T07:20:47.425Z,1026.69
2019-02-15T07:21:47.401Z,1026.70
2019-02-15T07:22:47.384Z,1026.73
2019-02-15T07:23:47.364Z,1026.76
2019-02-15T07:24:47.383Z,1026.82
2019-02-15T07:25:47.330Z,1026.82
2019-02-15T07:26:47.305Z,1026.84
2019-02-15T07:27:47.289Z,1026.82
2019-02-15T07:28:47.273Z,1026.87
2019-02-15T07:29:47.256Z,1026.84
2019-02-15T07:30:47.239Z,1026.79
2019-02-15T07:31:47.221Z,1026.74
2019-02-15T07:32:47.203Z,1026.69
2019-02-15T07:33:47.198Z,1026.61
2019-02-15T07:34:47.183Z,1026.62
2019-02-15T07:35:47.154Z,1026.60
2019-02-15T07:36:47.845Z,1026.57
2019-02-15T07:37:47.398Z,1026.61
2019-02-15T07:38:47.100Z,1026.72
2019-02-15T07:39:47.088Z,1026.84
2019-02-15T07:40:47.074Z,1026.90
2019-02-15T07:41:47.056Z,1026.93
2019-02-15T07:42:47.034Z,1026.91
2019-02-15T07:43:47.086Z,1026.93
2019-02-15T07:44:47.007Z,1026.97
2019-02-15T07:45:46.991Z,1027.05
2019-02-15T07:46:46.987Z,1027.02
2019-02-15T07:47:46.970Z,1027.01
2019-02-15T07:48:46.950Z,1027.06
2019-02-15T07:49:46.937Z,1027.07
2019-02-15T07:50:46.934Z,1027.13
2019-02-15T07:51:47.103Z,1026.99
2019-02-15T07:52:47.042Z,1026.95
2019-02-15T07:53:46.890Z,1027.06
2019-02-15T07:54:46.880Z,1027.17
2019-02-15T07:55:46.975Z,1027.16
2019-02-15T07:56:46.864Z,1027.16
2019-02-15T07:57:46.847Z,1027.15
2019-02-15T07:58:46.967Z,1027.17
2019-02-15T07:59:46.829Z,1027.20
2019-02-15T08:00:46.822Z,1027.21
2019-02-15T08:01:46.813Z,1027.24
2019-02-15T08:02:46.803Z,1027.26
2019-02-15T08:03:46.799Z,1027.29
2019-02-15T08:04:46.788Z,1027.26
2019-02-15T08:05:46.978Z,1027.29
2019-02-15T08:06:46.773Z,1027.23
2019-02-15T08:07:46.763Z,1027.26
2019-02-15T08:08:46.971Z,1027.19
2019-02-15T08:09:46.757Z,1027.16
2019-02-15T08:10:46.754Z,1027.17
2019-02-15T08:11:46.740Z,1027.18
2019-02-15T08:12:46.734Z,1027.16
2019-02-15T08:13:46.729Z,1027.16
2019-02-15T08:14:46.720Z,1027.22
2019-02-15T08:15:52.114Z,1027.24
2019-02-15T08:16:46.712Z,1027.20
2019-02-15T08:17:46.702Z,1027.14
2019-02-15T08:18:46.700Z,1027.19
2019-02-15T08:19:46.889Z,1027.21
2019-02-15T08:20:46.683Z,1027.24
2019-02-15T08:21:46.679Z,1027.20
2019-02-15T08:22:46.675Z,1027.19
2019-02-15T08:23:46.673Z,1027.07
2019-02-15T08:24:46.671Z,1027.00
2019-02-15T08:25:46.669Z,1027.02
2019-02-15T08:26:46.669Z,1027.05
2019-02-15T08:27:46.657Z,1027.05
2019-02-15T08:28:46.656Z,1026.95
2019-02-15T08:29:46.649Z,1026.93
2019-02-15T08:30:46.644Z,1027.04
2019-02-15T08:31:46.632Z,1027.16
2019-02-15T08:32:46.633Z,1027.06
2019-02-15T08:33:46.625Z,1027.23
2019-02-15T08:34:46.617Z,1027.31
2019-02-15T08:35:46.612Z,1027.29
2019-02-15T08:36:46.601Z,1027.38
2019-02-15T08:37:46.599Z,1027.28
2019-02-15T08:38:46.593Z,1027.21
2019-02-15T08:39:46.594Z,1027.28
2019-02-15T08:40:46.594Z,1027.34
2019-02-15T08:42:00.545Z,1027.30
2019-02-15T08:42:46.577Z,1027.29
2019-02-15T08:43:46.572Z,1027.18
2019-02-15T08:44:46.566Z,1027.11
2019-02-15T08:45:46.563Z,1027.16
2019-02-15T08:46:46.556Z,1027.11
2019-02-15T08:47:46.550Z,1027.11
2019-02-15T08:48:46.652Z,1027.24
2019-02-15T08:49:46.548Z,1027.27
2019-02-15T08:50:46.539Z,1027.35
2019-02-15T08:51:46.541Z,1027.47
2019-02-15T08:52:46.527Z,1027.46
2019-02-15T08:53:46.524Z,1027.42
2019-02-15T08:54:46.523Z,1027.41
2019-02-15T08:55:46.525Z,1027.46
2019-02-15T08:56:46.510Z,1027.52
2019-02-15T08:57:46.506Z,1027.52
2019-02-15T08:58:46.511Z,1027.46
2019-02-15T08:59:46.503Z,1027.45
2019-02-15T09:00:46.497Z,1027.43
2019-02-15T09:01:46.495Z,1027.41
2019-02-15T09:02:46.496Z,1027.36
2019-02-15T09:03:46.493Z,1027.36
2019-02-15T09:04:46.494Z,1027.37
2019-02-15T09:05:46.484Z,1027.32
2019-02-15T09:06:46.489Z,1027.35
2019-02-15T09:07:46.480Z,1027.38
2019-02-15T09:08:46.483Z,1027.37
2019-02-15T09:09:46.480Z,1027.34
2019-02-15T09:10:46.471Z,1027.32
2019-02-15T09:11:46.473Z,1027.34
2019-02-15T09:12:46.469Z,1027.36
2019-02-15T09:13:46.470Z,1027.40
2019-02-15T09:14:46.485Z,1027.38
2019-02-15T09:15:46.466Z,1027.39
2019-02-15T09:16:46.459Z,1027.43
2019-02-15T09:17:46.461Z,1027.47
2019-02-15T09:18:46.455Z,1027.41
2019-02-15T09:19:46.458Z,1027.45
2019-02-15T09:20:46.452Z,1027.46
2019-02-15T09:21:46.450Z,1027.42
2019-02-15T09:22:46.453Z,1027.39
2019-02-15T09:23:46.448Z,1027.43
2019-02-15T09:24:46.446Z,1027.45
2019-02-15T09:25:46.444Z,1027.47
2019-02-15T09:26:46.452Z,1027.45
2019-02-15T09:27:46.443Z,1027.45
2019-02-15T09:28:46.445Z,1027.43
2019-02-15T09:29:46.443Z,1027.43
2019-02-15T09:30:46.438Z,1027.48
2019-02-15T09:31:46.441Z,1027.53
2019-02-15T09:32:46.440Z,1027.61
2019-02-15T09:33:46.433Z,1027.54
2019-02-15T09:34:46.432Z,1027.35
2019-02-15T09:35:46.435Z,1027.18
2019-02-15T09:36:46.431Z,1027.10
2019-02-15T09:37:46.428Z,1027.10
2019-02-15T09:38:46.436Z,1027.13
2019-02-15T09:39:46.429Z,1027.12
2019-02-15T09:40:46.423Z,1027.09
2019-02-15T09:41:46.427Z,1027.09
2019-02-15T09:42:46.421Z,1027.26
2019-02-15T09:43:46.426Z,1027.42
2019-02-15T09:44:46.416Z,1027.26
2019-02-15T09:45:46.416Z,1027.22
2019-02-15T09:46:46.424Z,1027.24
2019-02-15T09:47:46.413Z,1027.28
2019-02-15T09:48:46.410Z,1027.31
2019-02-15T09:49:46.805Z,1027.33
2019-02-15T09:50:46.409Z,1027.36
2019-02-15T09:51:46.403Z,1027.35
2019-02-15T09:52:46.400Z,1027.34
2019-02-15T09:53:46.405Z,1027.33
2019-02-15T09:54:46.394Z,1027.40
2019-02-15T09:55:46.395Z,1027.44
2019-02-15T09:56:46.397Z,1027.39
2019-02-15T09:57:46.392Z,1027.37
2019-02-15T09:58:46.401Z,1027.36
2019-02-15T09:59:46.386Z,1027.42
2019-02-15T10:00:46.382Z,1027.47
2019-02-15T10:01:46.379Z,1027.54
2019-02-15T10:02:46.374Z,1027.53
2019-02-15T10:03:46.373Z,1027.51
2019-02-15T10:04:46.368Z,1027.57
2019-02-15T10:05:46.369Z,1027.58
2019-02-15T10:06:46.364Z,1027.54
2019-02-15T10:07:46.364Z,1027.60
2019-02-15T10:08:46.362Z,1027.67
2019-02-15T10:09:46.358Z,1027.71
2019-02-15T10:10:46.352Z,1027.79
2019-02-15T10:11:46.351Z,1027.93
2019-02-15T10:12:46.353Z,1027.97
2019-02-15T10:13:46.347Z,1027.93
2019-02-15T10:14:46.346Z,1028.07
2019-02-15T10:15:46.342Z,1028.16
2019-02-15T10:16:46.337Z,1028.22
2019-02-15T10:17:46.342Z,1028.24
2019-02-15T10:18:46.323Z,1028.18
2019-02-15T10:19:46.319Z,1028.36
2019-02-15T10:20:46.314Z,1028.52
2019-02-15T10:21:46.326Z,1028.64
2019-02-15T10:22:46.309Z,1028.53
2019-02-15T10:23:46.301Z,1028.52
2019-02-15T10:24:46.302Z,1028.64
2019-02-15T10:25:46.301Z,1028.73
2019-02-15T10:26:46.293Z,1028.81
2019-02-15T10:27:46.293Z,1028.93
2019-02-15T10:28:46.283Z,1029.02
2019-02-15T10:29:46.292Z,1029.08
2019-02-15T10:30:46.283Z,1028.91
2019-02-15T10:31:46.278Z,1028.94
2019-02-15T10:32:46.263Z,1028.84
2019-02-15T10:33:46.261Z,1028.79
2019-02-15T10:34:46.255Z,1028.81
2019-02-15T10:35:46.252Z,1028.81
2019-02-15T10:36:46.249Z,1028.74
2019-02-15T10:37:46.249Z,1028.54
2019-02-15T10:38:46.240Z,1028.45
2019-02-15T10:39:46.244Z,1028.39
2019-02-15T10:40:46.223Z,1028.26
2019-02-15T10:41:46.222Z,1028.10
2019-02-15T10:42:46.215Z,1027.53
2019-02-15T10:43:46.213Z,1026.95
2019-02-15T10:44:46.213Z,1026.58
2019-02-15T10:45:46.197Z,1026.48
2019-02-15T10:46:46.195Z,1026.42
2019-02-15T10:47:46.190Z,1026.42
2019-02-15T10:48:46.183Z,1026.46
2019-02-15T10:49:46.177Z,1026.39
2019-02-15T10:50:46.176Z,1026.39
2019-02-15T10:51:46.164Z,1026.40
2019-02-15T10:52:46.157Z,1026.34
2019-02-15T10:53:46.152Z,1026.38
2019-02-15T10:54:46.149Z,1026.33
2019-02-15T10:55:46.143Z,1026.32
2019-02-15T10:56:46.136Z,1026.32
2019-02-15T10:57:46.134Z,1026.30
2019-02-15T10:58:46.129Z,1026.28
2019-02-15T10:59:46.124Z,1026.26
2019-02-15T11:00:46.114Z,1026.28
2019-02-15T11:01:46.106Z,1026.23
2019-02-15T11:02:46.100Z,1026.20
2019-02-15T11:03:46.095Z,1026.22
2019-02-15T11:04:46.099Z,1026.16
2019-02-15T11:05:46.081Z,1026.19
2019-02-15T11:06:46.081Z,1026.18
2019-02-15T11:07:46.118Z,1026.15
2019-02-15T11:08:46.060Z,1026.17
2019-02-15T11:09:46.058Z,1026.13
2019-02-15T11:10:46.043Z,1026.15
2019-02-15T11:11:46.040Z,1026.11
2019-02-15T11:12:46.036Z,1026.13
2019-02-15T11:13:46.024Z,1026.07
2019-02-15T11:14:46.014Z,1026.05
2019-02-15T11:15:46.007Z,1026.03
2019-02-15T11:16:47.531Z,1026.04
2019-02-15T11:17:45.993Z,1026.00
2019-02-15T11:18:45.987Z,1025.99
2019-02-15T11:19:45.992Z,1025.99
2019-02-15T11:20:45.982Z,1025.94
2019-02-15T11:21:45.964Z,1025.90
2019-02-15T11:22:45.960Z,1025.92
2019-02-15T11:23:45.951Z,1025.88
2019-02-15T11:24:46.084Z,1025.85
2019-02-15T11:25:45.937Z,1025.87
2019-02-15T11:26:45.969Z,1025.85
2019-02-15T11:27:45.935Z,1025.85
2019-02-15T11:28:45.908Z,1025.88
2019-02-15T11:29:45.902Z,1025.83
2019-02-15T11:30:45.895Z,1025.78
2019-02-15T11:31:45.887Z,1025.82
2019-02-15T11:32:45.882Z,1025.77
2019-02-15T11:33:45.868Z,1025.75
2019-02-15T11:34:45.862Z,1025.79
2019-02-15T11:35:45.852Z,1025.72
2019-02-15T11:36:45.843Z,1025.76
2019-02-15T11:37:45.836Z,1025.71
2019-02-15T11:38:45.831Z,1025.73
2019-02-15T11:39:45.833Z,1025.68
2019-02-15T11:40:45.836Z,1025.72
2019-02-15T11:41:45.818Z,1025.71
2019-02-15T11:42:45.797Z,1025.69
2019-02-15T11:43:45.805Z,1025.70
2019-02-15T11:44:45.778Z,1025.68
2019-02-15T11:45:45.773Z,1025.64
2019-02-15T11:46:45.770Z,1025.60
2019-02-15T11:47:45.761Z,1025.61
2019-02-15T11:48:45.747Z,1025.59
2019-02-15T11:49:45.740Z,1025.57
2019-02-15T11:50:45.735Z,1025.51
2019-02-15T11:51:45.727Z,1025.59
2019-02-15T11:52:45.714Z,1025.51
2019-02-15T11:53:45.705Z,1025.55
2019-02-15T11:54:45.706Z,1025.52
2019-02-15T11:55:45.696Z,1025.57
2019-02-15T11:56:45.677Z,1025.48
2019-02-15T11:57:45.670Z,1025.47
2019-02-15T11:58:45.672Z,1025.45
2019-02-15T11:59:45.659Z,1025.42
2019-02-15T12:00:45.639Z,1025.42
2019-02-15T12:01:45.632Z,1025.39
2019-02-15T12:02:45.622Z,1025.36
2019-02-15T12:03:45.611Z,1025.37
2019-02-15T12:04:45.605Z,1025.36
2019-02-15T12:05:45.589Z,1025.34
2019-02-15T12:06:45.583Z,1025.31